sensor_id;sensor_type;location;lat;lon;timestamp;pressure;altitude;pressure_sealevel;temperature;humidity
49459;BME280;35354;51.296;16.924;2022-10-17T00:02:22;100429.69;;;12.73;100.00
49459;BME280;35354;51.296;16.924;2022-10-17T00:04:48;100422.19;;;12.65;100.00
49459;BME280;35354;51.296;16.924;2022-10-17T00:07:13;100429.75;;;12.71;100.00
49459;BME280;35354;51.296;16.924;2022-10-17T00:09:41;100421.44;;;12.62;100.00
49459;BME280;35354;51.296;16.924;2022-10-17T00:12:07;100429.16;;;12.65;100.00
49459;BME280;35354;51.296;16.924;2022-10-17T00:14:33;100435.16;;;12.67;100.00
49459;BME280;35354;51.296;16.924;2022-10-17T00:16:58;100414.84;;;12.53;100.00
49459;BME280;35354;51.296;16.924;2022-10-17T00:19:24;100436.28;;;12.61;100.00
49459;BME280;35354;51.296;16.924;2022-10-17T00:21:49;100439.75;;;12.62;100.00
49459;BME280;35354;51.296;16.924;2022-10-17T00:24:14;100442.28;;;12.63;100.00
49459;BME280;35354;51.296;16.924;2022-10-17T00:26:40;100441.41;;;12.64;100.00
49459;BME280;35354;51.296;16.924;2022-10-17T00:29:05;100433.06;;;12.55;100.00
49459;BME280;35354;51.296;16.924;2022-10-17T00:31:31;100447.59;;;12.62;100.00
49459;BME280;35354;51.296;16.924;2022-10-17T00:33:56;100442.47;;;12.59;100.00
49459;BME280;35354;51.296;16.924;2022-10-17T00:36:24;100444.31;;;12.57;100.00
49459;BME280;35354;51.296;16.924;2022-10-17T00:38:55;100421.31;;;12.44;100.00
49459;BME280;35354;51.296;16.924;2022-10-17T00:41:24;100433.38;;;12.47;100.00
49459;BME280;35354;51.296;16.924;2022-10-17T00:44:06;100434.44;;;12.43;100.00
49459;BME280;35354;51.296;16.924;2022-10-17T00:46:34;100447.31;;;12.47;100.00
49459;BME280;35354;51.296;16.924;2022-10-17T00:49:06;100436.56;;;12.33;100.00
49459;BME280;35354;51.296;16.924;2022-10-17T00:51:38;100450.81;;;12.46;100.00
49459;BME280;35354;51.296;16.924;2022-10-17T00:54:04;100439.06;;;12.36;100.00
49459;BME280;35354;51.296;16.924;2022-10-17T00:56:30;100450.25;;;12.40;100.00
49459;BME280;35354;51.296;16.924;2022-10-17T00:58:56;100449.44;;;12.38;100.00
49459;BME280;35354;51.296;16.924;2022-10-17T01:01:22;100450.38;;;12.37;100.00
49459;BME280;35354;51.296;16.924;2022-10-17T01:03:47;100452.91;;;12.38;100.00
49459;BME280;35354;51.296;16.924;2022-10-17T01:06:13;100444.41;;;12.33;100.00
49459;BME280;35354;51.296;16.924;2022-10-17T01:08:38;100447.03;;;12.33;100.00
49459;BME280;35354;51.296;16.924;2022-10-17T01:13:51;100448.59;;;12.37;100.00
49459;BME280;35354;51.296;16.924;2022-10-17T01:31:15;100429.31;;;12.19;100.00
49459;BME280;35354;51.296;16.924;2022-10-17T01:33:49;100439.50;;;12.26;100.00
49459;BME280;35354;51.296;16.924;2022-10-17T01:39:14;100444.81;;;12.24;100.00
49459;BME280;35354;51.296;16.924;2022-10-17T01:41:46;100425.22;;;12.14;100.00
49459;BME280;35354;51.296;16.924;2022-10-17T01:44:18;100424.28;;;12.15;100.00
49459;BME280;35354;51.296;16.924;2022-10-17T01:46:53;100424.28;;;12.15;100.00
49459;BME280;35354;51.296;16.924;2022-10-17T01:49:25;100421.72;;;12.13;100.00
49459;BME280;35354;51.296;16.924;2022-10-17T01:52:20;100427.81;;;12.14;100.00
49459;BME280;35354;51.296;16.924;2022-10-17T01:55:02;100427.94;;;12.11;100.00
49459;BME280;35354;51.296;16.924;2022-10-17T01:57:39;100419.38;;;12.07;100.00
49459;BME280;35354;51.296;16.924;2022-10-17T02:00:09;100427.00;;;12.12;100.00
49459;BME280;35354;51.296;16.924;2022-10-17T02:02:36;100425.31;;;12.11;100.00
49459;BME280;35354;51.296;16.924;2022-10-17T02:05:02;100427.13;;;12.09;100.00
49459;BME280;35354;51.296;16.924;2022-10-17T02:07:28;100439.16;;;12.13;100.00
49459;BME280;35354;51.296;16.924;2022-10-17T02:09:53;100459.19;;;12.12;100.00
49459;BME280;35354;51.296;16.924;2022-10-17T02:12:37;100456.59;;;12.12;100.00
49459;BME280;35354;51.296;16.924;2022-10-17T02:20:41;100464.53;;;12.09;100.00
49459;BME280;35354;51.296;16.924;2022-10-17T02:23:37;100458.47;;;12.09;100.00
49459;BME280;35354;51.296;16.924;2022-10-17T02:26:11;100464.78;;;12.03;100.00
49459;BME280;35354;51.296;16.924;2022-10-17T02:28:46;100469.81;;;12.08;100.00
49459;BME280;35354;51.296;16.924;2022-10-17T02:31:54;100464.69;;;12.06;100.00
49459;BME280;35354;51.296;16.924;2022-10-17T02:34:25;100456.22;;;11.99;100.00
49459;BME280;35354;51.296;16.924;2022-10-17T02:36:55;100458.91;;;11.98;100.00
49459;BME280;35354;51.296;16.924;2022-10-17T02:39:23;100467.47;;;12.02;100.00
49459;BME280;35354;51.296;16.924;2022-10-17T02:41:51;100461.63;;;11.95;100.00
49459;BME280;35354;51.296;16.924;2022-10-17T02:44:18;100468.63;;;11.94;100.00
49459;BME280;35354;51.296;16.924;2022-10-17T02:46:51;100483.44;;;11.94;100.00
49459;BME280;35354;51.296;16.924;2022-10-17T02:49:22;100467.16;;;11.87;100.00
49459;BME280;35354;51.296;16.924;2022-10-17T02:52:20;100477.41;;;11.92;100.00
49459;BME280;35354;51.296;16.924;2022-10-17T02:55:00;100472.19;;;11.92;100.00
49459;BME280;35354;51.296;16.924;2022-10-17T02:57:50;100473.00;;;11.94;100.00
49459;BME280;35354;51.296;16.924;2022-10-17T03:00:18;100464.50;;;11.89;100.00
49459;BME280;35354;51.296;16.924;2022-10-17T03:02:50;100469.53;;;11.93;100.00
49459;BME280;35354;51.296;16.924;2022-10-17T03:05:21;100470.56;;;11.89;100.00
49459;BME280;35354;51.296;16.924;2022-10-17T03:07:47;100462.00;;;11.86;100.00
49459;BME280;35354;51.296;16.924;2022-10-17T03:10:13;100474.88;;;11.90;100.00
49459;BME280;35354;51.296;16.924;2022-10-17T03:12:38;100468.91;;;11.87;100.00
49459;BME280;35354;51.296;16.924;2022-10-17T03:15:04;100476.81;;;11.85;100.00
49459;BME280;35354;51.296;16.924;2022-10-17T03:17:30;100485.56;;;11.84;100.00
49459;BME280;35354;51.296;16.924;2022-10-17T03:19:55;100491.63;;;11.85;100.00
49459;BME280;35354;51.296;16.924;2022-10-17T03:22:21;100483.94;;;11.80;100.00
49459;BME280;35354;51.296;16.924;2022-10-17T03:24:46;100483.97;;;11.79;100.00
49459;BME280;35354;51.296;16.924;2022-10-17T03:27:11;100483.13;;;11.78;100.00
49459;BME280;35354;51.296;16.924;2022-10-17T03:29:37;100483.25;;;11.75;100.00
49459;BME280;35354;51.296;16.924;2022-10-17T03:32:02;100485.19;;;11.70;100.00
49459;BME280;35354;51.296;16.924;2022-10-17T03:34:27;100479.00;;;11.72;100.00
49459;BME280;35354;51.296;16.924;2022-10-17T03:36:53;100490.28;;;11.73;100.00
49459;BME280;35354;51.296;16.924;2022-10-17T03:39:18;100484.41;;;11.68;100.00
49459;BME280;35354;51.296;16.924;2022-10-17T03:41:43;100479.38;;;11.63;100.00
49459;BME280;35354;51.296;16.924;2022-10-17T03:44:09;100480.38;;;11.59;100.00
49459;BME280;35354;51.296;16.924;2022-10-17T03:46:34;100497.56;;;11.65;100.00
49459;BME280;35354;51.296;16.924;2022-10-17T03:48:59;100494.13;;;11.63;100.00
49459;BME280;35354;51.296;16.924;2022-10-17T03:51:25;100490.84;;;11.58;100.00
49459;BME280;35354;51.296;16.924;2022-10-17T03:53:50;100489.16;;;11.57;100.00
49459;BME280;35354;51.296;16.924;2022-10-17T03:56:18;100495.06;;;11.62;100.00
49459;BME280;35354;51.296;16.924;2022-10-17T03:58:44;100503.78;;;11.61;100.00
49459;BME280;35354;51.296;16.924;2022-10-17T04:01:11;100496.25;;;11.53;100.00
49459;BME280;35354;51.296;16.924;2022-10-17T04:03:38;100489.34;;;11.52;100.00
49459;BME280;35354;51.296;16.924;2022-10-17T04:06:04;100488.53;;;11.50;100.00
49459;BME280;35354;51.296;16.924;2022-10-17T04:08:29;100500.44;;;11.57;100.00
49459;BME280;35354;51.296;16.924;2022-10-17T04:10:59;100502.31;;;11.54;100.00
49459;BME280;35354;51.296;16.924;2022-10-17T04:13:24;100502.44;;;11.51;100.00
49459;BME280;35354;51.296;16.924;2022-10-17T04:16:01;100493.03;;;11.46;100.00
49459;BME280;35354;51.296;16.924;2022-10-17T04:18:27;100494.84;;;11.44;100.00
49459;BME280;35354;51.296;16.924;2022-10-17T04:20:53;100508.63;;;11.48;100.00
49459;BME280;35354;51.296;16.924;2022-10-17T04:23:18;100505.38;;;11.41;100.00
49459;BME280;35354;51.296;16.924;2022-10-17T04:25:44;100514.84;;;11.44;100.00
49459;BME280;35354;51.296;16.924;2022-10-17T04:28:10;100511.31;;;11.45;100.00
49459;BME280;35354;51.296;16.924;2022-10-17T04:30:35;100511.47;;;11.42;100.00
49459;BME280;35354;51.296;16.924;2022-10-17T04:33:00;100501.88;;;11.42;100.00
49459;BME280;35354;51.296;16.924;2022-10-17T04:35:26;100506.13;;;11.45;100.00
49459;BME280;35354;51.296;16.924;2022-10-17T04:37:51;100496.94;;;11.35;100.00
49459;BME280;35354;51.296;16.924;2022-10-17T04:40:17;100507.13;;;11.41;100.00
49459;BME280;35354;51.296;16.924;2022-10-17T04:42:42;100507.94;;;11.43;100.00
49459;BME280;35354;51.296;16.924;2022-10-17T04:45:08;100521.00;;;11.41;100.00
49459;BME280;35354;51.296;16.924;2022-10-17T04:47:33;100515.94;;;11.38;100.00
49459;BME280;35354;51.296;16.924;2022-10-17T04:49:58;100513.53;;;11.32;100.00
49459;BME280;35354;51.296;16.924;2022-10-17T04:52:24;100507.56;;;11.29;100.00
49459;BME280;35354;51.296;16.924;2022-10-17T04:54:50;100514.28;;;11.36;100.00
49459;BME280;35354;51.296;16.924;2022-10-17T04:57:15;100500.50;;;11.32;100.00
49459;BME280;35354;51.296;16.924;2022-10-17T04:59:41;100505.66;;;11.34;100.00
49459;BME280;35354;51.296;16.924;2022-10-17T05:02:06;100516.72;;;11.40;100.00
49459;BME280;35354;51.296;16.924;2022-10-17T05:04:31;100511.78;;;11.33;100.00
49459;BME280;35354;51.296;16.924;2022-10-17T05:06:57;100525.53;;;11.38;100.00
49459;BME280;35354;51.296;16.924;2022-10-17T05:09:22;100516.19;;;11.31;100.00
49459;BME280;35354;51.296;16.924;2022-10-17T05:11:47;100519.56;;;11.34;100.00
49459;BME280;35354;51.296;16.924;2022-10-17T05:14:14;100520.31;;;11.38;100.00
49459;BME280;35354;51.296;16.924;2022-10-17T05:16:40;100524.53;;;11.40;100.00
49459;BME280;35354;51.296;16.924;2022-10-17T05:19:05;100527.03;;;11.43;100.00
49459;BME280;35354;51.296;16.924;2022-10-17T05:21:30;100530.50;;;11.44;100.00
49459;BME280;35354;51.296;16.924;2022-10-17T05:23:56;100538.31;;;11.44;100.00
49459;BME280;35354;51.296;16.924;2022-10-17T05:26:22;100522.09;;;11.36;100.00
49459;BME280;35354;51.296;16.924;2022-10-17T05:28:48;100540.09;;;11.43;100.00
49459;BME280;35354;51.296;16.924;2022-10-17T05:31:14;100533.03;;;11.45;100.00
49459;BME280;35354;51.296;16.924;2022-10-17T05:33:39;100537.22;;;11.51;100.00
49459;BME280;35354;51.296;16.924;2022-10-17T05:36:05;100539.69;;;11.54;100.00
49459;BME280;35354;51.296;16.924;2022-10-17T05:38:31;100553.28;;;11.64;100.00
49459;BME280;35354;51.296;16.924;2022-10-17T05:40:58;100548.91;;;11.64;100.00
49459;BME280;35354;51.296;16.924;2022-10-17T05:43:24;100553.78;;;11.73;100.00
49459;BME280;35354;51.296;16.924;2022-10-17T05:45:49;100553.66;;;11.77;100.00
49459;BME280;35354;51.296;16.924;2022-10-17T05:48:15;100557.81;;;11.82;100.00
49459;BME280;35354;51.296;16.924;2022-10-17T05:50:40;100542.97;;;11.84;100.00
49459;BME280;35354;51.296;16.924;2022-10-17T05:53:06;100550.19;;;12.01;100.00
49459;BME280;35354;51.296;16.924;2022-10-17T05:55:32;100560.13;;;12.13;100.00
49459;BME280;35354;51.296;16.924;2022-10-17T05:57:59;100568.03;;;12.34;100.00
49459;BME280;35354;51.296;16.924;2022-10-17T06:00:24;100553.84;;;12.41;100.00
49459;BME280;35354;51.296;16.924;2022-10-17T06:02:49;100563.31;;;12.65;100.00
49459;BME280;35354;51.296;16.924;2022-10-17T06:05:15;100556.66;;;12.79;100.00
49459;BME280;35354;51.296;16.924;2022-10-17T06:07:41;100581.00;;;13.01;100.00
49459;BME280;35354;51.296;16.924;2022-10-17T06:10:07;100573.81;;;13.06;100.00
49459;BME280;35354;51.296;16.924;2022-10-17T06:12:32;100571.47;;;13.20;100.00
49459;BME280;35354;51.296;16.924;2022-10-17T06:14:58;100569.09;;;13.36;100.00
49459;BME280;35354;51.296;16.924;2022-10-17T06:17:23;100572.31;;;13.62;100.00
49459;BME280;35354;51.296;16.924;2022-10-17T06:19:49;100574.03;;;13.82;100.00
49459;BME280;35354;51.296;16.924;2022-10-17T06:22:14;100560.09;;;14.00;100.00
49459;BME280;35354;51.296;16.924;2022-10-17T06:24:39;100579.44;;;14.16;100.00
49459;BME280;35354;51.296;16.924;2022-10-17T06:27:05;100576.72;;;14.56;100.00
49459;BME280;35354;51.296;16.924;2022-10-17T06:29:30;100585.25;;;14.95;100.00
49459;BME280;35354;51.296;16.924;2022-10-17T06:31:56;100579.78;;;15.00;100.00
49459;BME280;35354;51.296;16.924;2022-10-17T06:34:21;100598.38;;;15.30;100.00
49459;BME280;35354;51.296;16.924;2022-10-17T06:36:47;100586.06;;;15.48;100.00
49459;BME280;35354;51.296;16.924;2022-10-17T06:39:12;100593.69;;;15.70;100.00
49459;BME280;35354;51.296;16.924;2022-10-17T06:41:38;100591.75;;;16.38;100.00
49459;BME280;35354;51.296;16.924;2022-10-17T06:44:05;100590.41;;;16.93;100.00
49459;BME280;35354;51.296;16.924;2022-10-17T06:46:35;100598.91;;;16.98;98.69
49459;BME280;35354;51.296;16.924;2022-10-17T06:49:01;100605.06;;;17.27;97.86
49459;BME280;35354;51.296;16.924;2022-10-17T06:51:26;100592.50;;;18.74;93.27
49459;BME280;35354;51.296;16.924;2022-10-17T06:53:51;100605.03;;;20.25;85.87
49459;BME280;35354;51.296;16.924;2022-10-17T06:56:17;100596.19;;;20.13;83.11
49459;BME280;35354;51.296;16.924;2022-10-17T06:58:43;100610.59;;;19.96;84.67
49459;BME280;35354;51.296;16.924;2022-10-17T07:01:11;100600.00;;;20.46;83.51
49459;BME280;35354;51.296;16.924;2022-10-17T07:03:38;100604.19;;;21.89;77.54
49459;BME280;35354;51.296;16.924;2022-10-17T07:06:04;100591.75;;;21.45;76.13
49459;BME280;35354;51.296;16.924;2022-10-17T07:08:29;100608.53;;;20.62;78.32
49459;BME280;35354;51.296;16.924;2022-10-17T07:10:55;100612.22;;;20.48;80.05
49459;BME280;35354;51.296;16.924;2022-10-17T07:13:20;100611.97;;;20.99;76.15
49459;BME280;35354;51.296;16.924;2022-10-17T07:15:46;100612.25;;;21.18;76.82
49459;BME280;35354;51.296;16.924;2022-10-17T07:18:12;100608.22;;;20.66;77.71
49459;BME280;35354;51.296;16.924;2022-10-17T07:20:38;100619.97;;;20.13;78.96
49459;BME280;35354;51.296;16.924;2022-10-17T07:23:04;100634.50;;;19.56;81.28
49459;BME280;35354;51.296;16.924;2022-10-17T07:25:30;100626.44;;;19.45;82.48
49459;BME280;35354;51.296;16.924;2022-10-17T07:27:55;100616.06;;;19.29;83.06
49459;BME280;35354;51.296;16.924;2022-10-17T07:30:21;100638.69;;;19.33;83.63
49459;BME280;35354;51.296;16.924;2022-10-17T07:32:47;100638.47;;;19.36;84.25
49459;BME280;35354;51.296;16.924;2022-10-17T07:35:13;100634.53;;;19.29;83.83
49459;BME280;35354;51.296;16.924;2022-10-17T07:37:39;100622.06;;;19.18;83.35
49459;BME280;35354;51.296;16.924;2022-10-17T07:40:06;100631.66;;;19.07;82.98
49459;BME280;35354;51.296;16.924;2022-10-17T07:42:33;100619.25;;;18.94;84.07
49459;BME280;35354;51.296;16.924;2022-10-17T07:45:00;100634.81;;;18.99;84.44
49459;BME280;35354;51.296;16.924;2022-10-17T07:47:26;100634.84;;;19.12;84.49
49459;BME280;35354;51.296;16.924;2022-10-17T07:49:51;100633.94;;;19.26;83.71
49459;BME280;35354;51.296;16.924;2022-10-17T07:52:17;100619.00;;;19.12;83.54
49459;BME280;35354;51.296;16.924;2022-10-17T07:54:43;100633.59;;;19.17;82.96
49459;BME280;35354;51.296;16.924;2022-10-17T07:57:08;100633.69;;;19.16;84.03
49459;BME280;35354;51.296;16.924;2022-10-17T07:59:36;100634.66;;;19.28;84.22
49459;BME280;35354;51.296;16.924;2022-10-17T08:02:02;100626.75;;;19.28;84.05
49459;BME280;35354;51.296;16.924;2022-10-17T08:04:28;100632.69;;;19.44;83.28
49459;BME280;35354;51.296;16.924;2022-10-17T08:06:53;100635.53;;;19.41;82.60
49459;BME280;35354;51.296;16.924;2022-10-17T08:09:19;100633.41;;;19.46;82.80
49459;BME280;35354;51.296;16.924;2022-10-17T08:11:45;100627.41;;;19.44;82.59
49459;BME280;35354;51.296;16.924;2022-10-17T08:14:13;100639.31;;;19.37;82.60
49459;BME280;35354;51.296;16.924;2022-10-17T08:16:41;100638.47;;;19.36;82.52
49459;BME280;35354;51.296;16.924;2022-10-17T08:19:06;100627.50;;;19.42;83.02
49459;BME280;35354;51.296;16.924;2022-10-17T08:21:33;100643.13;;;19.45;82.41
49459;BME280;35354;51.296;16.924;2022-10-17T08:23:59;100639.63;;;19.32;83.00
49459;BME280;35354;51.296;16.924;2022-10-17T08:26:26;100644.28;;;19.29;83.39
49459;BME280;35354;51.296;16.924;2022-10-17T08:28:52;100639.53;;;19.34;84.41
49459;BME280;35354;51.296;16.924;2022-10-17T08:31:19;100640.16;;;19.37;84.53
49459;BME280;35354;51.296;16.924;2022-10-17T08:33:46;100632.16;;;19.39;83.59
49459;BME280;35354;51.296;16.924;2022-10-17T08:36:13;100638.06;;;19.42;83.94
49459;BME280;35354;51.296;16.924;2022-10-17T08:38:39;100633.63;;;19.30;83.54
49459;BME280;35354;51.296;16.924;2022-10-17T08:41:14;100630.50;;;19.11;84.36
49459;BME280;35354;51.296;16.924;2022-10-17T08:46:18;100637.22;;;18.89;86.10
49459;BME280;35354;51.296;16.924;2022-10-17T08:48:45;100630.13;;;18.90;86.18
49459;BME280;35354;51.296;16.924;2022-10-17T08:51:19;100629.81;;;18.94;86.23
49459;BME280;35354;51.296;16.924;2022-10-17T08:56:29;100624.50;;;18.82;86.93
49459;BME280;35354;51.296;16.924;2022-10-17T08:58:57;100629.59;;;18.85;86.88
49459;BME280;35354;51.296;16.924;2022-10-17T09:06:38;100633.56;;;18.78;87.67
49459;BME280;35354;51.296;16.924;2022-10-17T09:16:39;100637.69;;;18.82;87.84
49459;BME280;35354;51.296;16.924;2022-10-17T09:19:19;100630.81;;;18.79;87.98
49459;BME280;35354;51.296;16.924;2022-10-17T09:21:57;100636.16;;;18.92;87.95
49459;BME280;35354;51.296;16.924;2022-10-17T09:27:04;100626.66;;;18.89;88.05
49459;BME280;35354;51.296;16.924;2022-10-17T09:29:30;100632.78;;;18.90;87.29
49459;BME280;35354;51.296;16.924;2022-10-17T09:32:23;100630.78;;;18.93;87.56
49459;BME280;35354;51.296;16.924;2022-10-17T09:34:51;100629.31;;;19.02;87.97
49459;BME280;35354;51.296;16.924;2022-10-17T09:37:17;100628.19;;;19.06;86.69
49459;BME280;35354;51.296;16.924;2022-10-17T09:39:44;100620.13;;;19.08;87.21
49459;BME280;35354;51.296;16.924;2022-10-17T09:42:15;100619.94;;;19.11;87.54
49459;BME280;35354;51.296;16.924;2022-10-17T09:47:38;100619.16;;;19.36;85.37
49459;BME280;35354;51.296;16.924;2022-10-17T09:50:17;100618.50;;;19.32;85.43
49459;BME280;35354;51.296;16.924;2022-10-17T09:52:45;100627.28;;;19.45;85.53
49459;BME280;35354;51.296;16.924;2022-10-17T09:58:01;100623.91;;;19.56;85.37
49459;BME280;35354;51.296;16.924;2022-10-17T10:00:46;100606.91;;;19.60;85.96
49459;BME280;35354;51.296;16.924;2022-10-17T10:03:21;100619.31;;;19.73;84.80
49459;BME280;35354;51.296;16.924;2022-10-17T10:08:28;100607.78;;;19.74;85.27
49459;BME280;35354;51.296;16.924;2022-10-17T10:11:02;100620.34;;;19.83;84.83
49459;BME280;35354;51.296;16.924;2022-10-17T10:13:29;100619.06;;;19.88;84.73
49459;BME280;35354;51.296;16.924;2022-10-17T10:16:13;100602.28;;;19.89;84.35
49459;BME280;35354;51.296;16.924;2022-10-17T10:18:39;100614.84;;;19.99;84.05
49459;BME280;35354;51.296;16.924;2022-10-17T10:23:33;100617.66;;;20.08;83.31
49459;BME280;35354;51.296;16.924;2022-10-17T10:26:10;100605.41;;;20.07;82.78
49459;BME280;35354;51.296;16.924;2022-10-17T10:28:39;100613.97;;;20.11;82.32
49459;BME280;35354;51.296;16.924;2022-10-17T10:31:07;100618.94;;;20.15;82.48
49459;BME280;35354;51.296;16.924;2022-10-17T10:33:36;100603.69;;;20.19;82.34
49459;BME280;35354;51.296;16.924;2022-10-17T10:36:05;100609.38;;;20.26;81.60
49459;BME280;35354;51.296;16.924;2022-10-17T10:38:32;100611.34;;;20.35;82.23
49459;BME280;35354;51.296;16.924;2022-10-17T10:41:07;100618.88;;;20.41;80.78
49459;BME280;35354;51.296;16.924;2022-10-17T10:46:24;100614.84;;;20.48;80.38
49459;BME280;35354;51.296;16.924;2022-10-17T10:48:56;100600.84;;;20.46;80.26
49459;BME280;35354;51.296;16.924;2022-10-17T10:51:45;100617.53;;;20.59;80.36
49459;BME280;35354;51.296;16.924;2022-10-17T10:56:46;100601.22;;;20.65;79.19
49459;BME280;35354;51.296;16.924;2022-10-17T10:59:19;100609.66;;;20.71;79.20
49459;BME280;35354;51.296;16.924;2022-10-17T11:01:53;100609.34;;;20.75;80.15
49459;BME280;35354;51.296;16.924;2022-10-17T11:07:30;100594.97;;;20.90;78.43
49459;BME280;35354;51.296;16.924;2022-10-17T11:10:06;100584.13;;;20.93;78.60
49459;BME280;35354;51.296;16.924;2022-10-17T11:12:35;100592.72;;;21.08;78.53
49459;BME280;35354;51.296;16.924;2022-10-17T11:18:21;100588.91;;;21.24;77.20
49459;BME280;35354;51.296;16.924;2022-10-17T11:20:55;100587.59;;;21.29;77.92
49459;BME280;35354;51.296;16.924;2022-10-17T11:23:59;100581.97;;;21.34;77.84
49459;BME280;35354;51.296;16.924;2022-10-17T11:26:30;100578.13;;;21.38;77.66
49459;BME280;35354;51.296;16.924;2022-10-17T11:29:01;100581.50;;;21.40;77.50
49459;BME280;35354;51.296;16.924;2022-10-17T11:31:30;100582.94;;;21.44;76.92
49459;BME280;35354;51.296;16.924;2022-10-17T11:34:20;100568.84;;;21.43;75.96
49459;BME280;35354;51.296;16.924;2022-10-17T11:36:46;100577.53;;;21.57;76.38
49459;BME280;35354;51.296;16.924;2022-10-17T11:39:20;100577.19;;;21.61;76.18
49459;BME280;35354;51.296;16.924;2022-10-17T11:41:51;100558.75;;;21.60;75.86
49459;BME280;35354;51.296;16.924;2022-10-17T11:44:36;100572.03;;;21.71;75.48
49459;BME280;35354;51.296;16.924;2022-10-17T11:52:48;100559.59;;;21.72;74.89
49459;BME280;35354;51.296;16.924;2022-10-17T11:55:20;100565.38;;;21.77;74.92
49459;BME280;35354;51.296;16.924;2022-10-17T12:00:36;100571.06;;;21.83;73.51
49459;BME280;35354;51.296;16.924;2022-10-17T12:06:10;100550.69;;;21.84;72.92
49459;BME280;35354;51.296;16.924;2022-10-17T12:08:50;100557.53;;;21.98;74.04
49459;BME280;35354;51.296;16.924;2022-10-17T12:11:40;100566.81;;;22.03;71.90
49459;BME280;35354;51.296;16.924;2022-10-17T12:14:38;100564.88;;;22.05;72.19
49459;BME280;35354;51.296;16.924;2022-10-17T12:17:20;100553.53;;;22.03;71.73
49459;BME280;35354;51.296;16.924;2022-10-17T12:19:47;100542.47;;;21.98;70.90
49459;BME280;35354;51.296;16.924;2022-10-17T12:22:23;100538.38;;;21.94;72.02
49459;BME280;35354;51.296;16.924;2022-10-17T12:24:53;100552.31;;;22.07;72.53
49459;BME280;35354;51.296;16.924;2022-10-17T12:29:46;100542.81;;;22.05;71.73
49459;BME280;35354;51.296;16.924;2022-10-17T12:32:13;100539.19;;;22.06;72.29
49459;BME280;35354;51.296;16.924;2022-10-17T12:34:39;100557.66;;;22.19;72.05
49459;BME280;35354;51.296;16.924;2022-10-17T12:45:54;100536.78;;;22.25;72.35
49459;BME280;35354;51.296;16.924;2022-10-17T12:51:17;100547.19;;;22.17;70.92
49459;BME280;35354;51.296;16.924;2022-10-17T12:54:07;100554.88;;;22.09;70.86
49459;BME280;35354;51.296;16.924;2022-10-17T12:59:27;100539.56;;;22.01;71.91
49459;BME280;35354;51.296;16.924;2022-10-17T13:01:58;100521.97;;;21.89;71.34
49459;BME280;35354;51.296;16.924;2022-10-17T13:04:26;100535.34;;;21.99;71.87
49459;BME280;35354;51.296;16.924;2022-10-17T13:06:55;100542.09;;;22.03;70.77
49459;BME280;35354;51.296;16.924;2022-10-17T13:09:26;100539.19;;;22.06;71.19
49459;BME280;35354;51.296;16.924;2022-10-17T13:11:54;100534.88;;;22.05;71.32
49459;BME280;35354;51.296;16.924;2022-10-17T13:14:22;100505.47;;;21.97;70.83
49459;BME280;35354;51.296;16.924;2022-10-17T13:17:00;100514.34;;;22.07;71.25
49459;BME280;35354;51.296;16.924;2022-10-17T13:19:29;100522.44;;;22.05;70.29
49459;BME280;35354;51.296;16.924;2022-10-17T13:22:00;100528.47;;;22.19;69.65
49459;BME280;35354;51.296;16.924;2022-10-17T13:24:35;100530.41;;;22.16;69.80
49459;BME280;35354;51.296;16.924;2022-10-17T13:27:01;100531.97;;;22.19;69.38
49459;BME280;35354;51.296;16.924;2022-10-17T13:29:28;100519.53;;;22.08;69.76
49459;BME280;35354;51.296;16.924;2022-10-17T13:31:58;100524.50;;;22.02;70.04
49459;BME280;35354;51.296;16.924;2022-10-17T13:34:28;100528.22;;;21.99;69.80
49459;BME280;35354;51.296;16.924;2022-10-17T13:36:56;100513.31;;;21.87;69.60
49459;BME280;35354;51.296;16.924;2022-10-17T13:39:25;100532.81;;;21.97;68.79
49459;BME280;35354;51.296;16.924;2022-10-17T13:41:53;100526.91;;;21.93;69.14
49459;BME280;35354;51.296;16.924;2022-10-17T13:44:20;100533.66;;;21.98;69.36
49459;BME280;35354;51.296;16.924;2022-10-17T13:46:47;100533.78;;;21.96;69.10
49459;BME280;35354;51.296;16.924;2022-10-17T13:51:48;100515.59;;;21.91;68.33
49459;BME280;35354;51.296;16.924;2022-10-17T13:54:37;100526.69;;;21.97;68.14
49459;BME280;35354;51.296;16.924;2022-10-17T13:57:13;100512.22;;;21.89;67.67
49459;BME280;35354;51.296;16.924;2022-10-17T13:59:40;100521.25;;;21.98;67.14
49459;BME280;35354;51.296;16.924;2022-10-17T14:02:13;100505.56;;;21.95;66.69
49459;BME280;35354;51.296;16.924;2022-10-17T14:04:39;100514.00;;;22.00;66.65
49459;BME280;35354;51.296;16.924;2022-10-17T14:07:11;100514.13;;;21.99;67.06
49459;BME280;35354;51.296;16.924;2022-10-17T14:09:45;100506.91;;;21.89;67.77
49459;BME280;35354;51.296;16.924;2022-10-17T14:12:11;100513.44;;;21.85;67.82
49459;BME280;35354;51.296;16.924;2022-10-17T14:14:38;100508.25;;;21.84;67.86
49459;BME280;35354;51.296;16.924;2022-10-17T14:17:13;100512.22;;;21.78;68.14
49459;BME280;35354;51.296;16.924;2022-10-17T14:19:39;100501.28;;;21.72;68.07
49459;BME280;35354;51.296;16.924;2022-10-17T14:22:16;100504.91;;;21.71;67.56
49459;BME280;35354;51.296;16.924;2022-10-17T14:24:42;100510.91;;;21.73;67.88
49459;BME280;35354;51.296;16.924;2022-10-17T14:27:30;100512.22;;;21.78;67.70